sensor_id;sensor_type;location;lat;lon;timestamp;pressure;altitude;pressure_sealevel;temperature;humidity
80424;BME280;69765;47.668;19.326;2024-01-27T00:02:27;99506.66;;;5.47;100.00
80424;BME280;69765;47.668;19.326;2024-01-27T00:05:29;99513.19;;;5.54;100.00
80424;BME280;69765;47.668;19.326;2024-01-27T00:08:33;99523.09;;;5.51;100.00
80424;BME280;69765;47.668;19.326;2024-01-27T00:11:35;99530.56;;;5.49;100.00
80424;BME280;69765;47.668;19.326;2024-01-27T00:14:40;99533.09;;;5.49;100.00
80424;BME280;69765;47.668;19.326;2024-01-27T00:17:42;99541.91;;;5.53;100.00
80424;BME280;69765;47.668;19.326;2024-01-27T00:20:44;99542.19;;;5.56;100.00
80424;BME280;69765;47.668;19.326;2024-01-27T00:23:47;99552.06;;;5.53;100.00
80424;BME280;69765;47.668;19.326;2024-01-27T00:26:49;99551.47;;;5.55;100.00
80424;BME280;69765;47.668;19.326;2024-01-27T00:29:52;99568.03;;;5.60;100.00
80424;BME280;69765;47.668;19.326;2024-01-27T00:32:54;99567.91;;;5.50;100.00
80424;BME280;69765;47.668;19.326;2024-01-27T00:35:56;99558.66;;;5.51;100.00
80424;BME280;69765;47.668;19.326;2024-01-27T00:38:58;99569.84;;;5.53;100.00
80424;BME280;69765;47.668;19.326;2024-01-27T00:42:01;99576.63;;;5.44;100.00
80424;BME280;69765;47.668;19.326;2024-01-27T00:45:06;99577.50;;;5.44;100.00
80424;BME280;69765;47.668;19.326;2024-01-27T00:48:08;99575.44;;;5.40;100.00
80424;BME280;69765;47.668;19.326;2024-01-27T00:51:11;99582.16;;;5.39;100.00
80424;BME280;69765;47.668;19.326;2024-01-27T00:54:14;99592.63;;;5.43;100.00
80424;BME280;69765;47.668;19.326;2024-01-27T00:57:16;99591.09;;;5.45;100.00
80424;BME280;69765;47.668;19.326;2024-01-27T01:00:18;99587.53;;;5.43;100.00
80424;BME280;69765;47.668;19.326;2024-01-27T01:03:21;99594.53;;;5.45;100.00
80424;BME280;69765;47.668;19.326;2024-01-27T01:06:23;99587.13;;;5.38;100.00
80424;BME280;69765;47.668;19.326;2024-01-27T01:09:25;99592.09;;;5.28;100.00
80424;BME280;69765;47.668;19.326;2024-01-27T01:12:28;99596.56;;;5.22;100.00
80424;BME280;69765;47.668;19.326;2024-01-27T01:15:30;99590.03;;;5.15;100.00
80424;BME280;69765;47.668;19.326;2024-01-27T01:18:33;99582.59;;;5.08;100.00
80424;BME280;69765;47.668;19.326;2024-01-27T01:21:36;99598.44;;;5.05;100.00
80424;BME280;69765;47.668;19.326;2024-01-27T01:24:38;99597.59;;;4.96;100.00
80424;BME280;69765;47.668;19.326;2024-01-27T01:27:41;99606.72;;;4.94;100.00
80424;BME280;69765;47.668;19.326;2024-01-27T01:30:43;99615.22;;;4.86;100.00
80424;BME280;69765;47.668;19.326;2024-01-27T01:33:45;99598.34;;;4.86;100.00
80424;BME280;69765;47.668;19.326;2024-01-27T01:36:47;99610.75;;;4.75;100.00
80424;BME280;69765;47.668;19.326;2024-01-27T01:39:50;99616.31;;;4.62;100.00
80424;BME280;69765;47.668;19.326;2024-01-27T01:42:52;99620.94;;;4.57;100.00
80424;BME280;69765;47.668;19.326;2024-01-27T01:45:55;99621.53;;;4.55;100.00
80424;BME280;69765;47.668;19.326;2024-01-27T01:48:57;99622.13;;;4.61;100.00
80424;BME280;69765;47.668;19.326;2024-01-27T01:52:01;99626.63;;;4.55;100.00
80424;BME280;69765;47.668;19.326;2024-01-27T01:55:03;99627.94;;;4.51;100.00
80424;BME280;69765;47.668;19.326;2024-01-27T01:58:07;99623.19;;;4.46;100.00
80424;BME280;69765;47.668;19.326;2024-01-27T02:01:09;99611.41;;;4.46;100.00
80424;BME280;69765;47.668;19.326;2024-01-27T02:04:12;99617.09;;;4.44;100.00
80424;BME280;69765;47.668;19.326;2024-01-27T02:07:14;99603.97;;;4.48;100.00
80424;BME280;69765;47.668;19.326;2024-01-27T02:10:17;99615.00;;;4.40;100.00
80424;BME280;69765;47.668;19.326;2024-01-27T02:13:22;99623.50;;;4.40;100.00
80424;BME280;69765;47.668;19.326;2024-01-27T02:16:25;99631.41;;;4.43;100.00
80424;BME280;69765;47.668;19.326;2024-01-27T02:19:27;99630.53;;;4.43;100.00
80424;BME280;69765;47.668;19.326;2024-01-27T02:22:29;99639.16;;;4.45;100.00
80424;BME280;69765;47.668;19.326;2024-01-27T02:25:35;99650.34;;;4.38;100.00
80424;BME280;69765;47.668;19.326;2024-01-27T02:28:37;99646.31;;;4.40;100.00
80424;BME280;69765;47.668;19.326;2024-01-27T02:31:39;99649.88;;;4.51;100.00
80424;BME280;69765;47.668;19.326;2024-01-27T02:34:42;99668.84;;;4.54;100.00
80424;BME280;69765;47.668;19.326;2024-01-27T02:37:44;99668.72;;;4.53;100.00
80424;BME280;69765;47.668;19.326;2024-01-27T02:40:46;99675.41;;;4.52;100.00
80424;BME280;69765;47.668;19.326;2024-01-27T02:43:48;99673.47;;;4.50;100.00
80424;BME280;69765;47.668;19.326;2024-01-27T02:46:50;99672.72;;;4.42;100.00
80424;BME280;69765;47.668;19.326;2024-01-27T02:49:52;99682.56;;;4.39;100.00
80424;BME280;69765;47.668;19.326;2024-01-27T02:52:55;99688.38;;;4.29;100.00
80424;BME280;69765;47.668;19.326;2024-01-27T02:55:57;99706.88;;;4.28;100.00
80424;BME280;69765;47.668;19.326;2024-01-27T02:58:59;99716.69;;;4.17;100.00
80424;BME280;69765;47.668;19.326;2024-01-27T03:02:01;99717.16;;;4.21;100.00
80424;BME280;69765;47.668;19.326;2024-01-27T03:05:03;99710.28;;;4.12;100.00
80424;BME280;69765;47.668;19.326;2024-01-27T03:08:06;99719.06;;;4.06;100.00
80424;BME280;69765;47.668;19.326;2024-01-27T03:11:08;99717.88;;;4.12;99.47
80424;BME280;69765;47.668;19.326;2024-01-27T03:14:10;99719.53;;;4.11;98.51
80424;BME280;69765;47.668;19.326;2024-01-27T03:17:13;99719.19;;;4.08;97.47
80424;BME280;69765;47.668;19.326;2024-01-27T03:20:15;99726.81;;;4.08;96.74
80424;BME280;69765;47.668;19.326;2024-01-27T03:23:17;99744.09;;;4.03;95.59
80424;BME280;69765;47.668;19.326;2024-01-27T03:26:19;99750.06;;;4.04;94.69
80424;BME280;69765;47.668;19.326;2024-01-27T03:29:22;99767.78;;;4.04;93.96
80424;BME280;69765;47.668;19.326;2024-01-27T03:32:24;99769.72;;;3.98;94.13
80424;BME280;69765;47.668;19.326;2024-01-27T03:35:26;99779.81;;;3.89;94.87
80424;BME280;69765;47.668;19.326;2024-01-27T03:38:29;99792.34;;;3.88;95.06
80424;BME280;69765;47.668;19.326;2024-01-27T03:41:31;99802.16;;;3.84;93.44
80424;BME280;69765;47.668;19.326;2024-01-27T03:44:33;99806.06;;;3.90;91.49
80424;BME280;69765;47.668;19.326;2024-01-27T03:47:35;99819.13;;;3.77;92.74
80424;BME280;69765;47.668;19.326;2024-01-27T03:50:37;99827.91;;;3.72;92.44
80424;BME280;69765;47.668;19.326;2024-01-27T03:53:39;99840.78;;;3.66;92.02
80424;BME280;69765;47.668;19.326;2024-01-27T03:56:42;99838.59;;;3.69;90.62
80424;BME280;69765;47.668;19.326;2024-01-27T03:59:44;99839.06;;;3.74;90.69
80424;BME280;69765;47.668;19.326;2024-01-27T04:02:46;99840.38;;;3.70;90.41
80424;BME280;69765;47.668;19.326;2024-01-27T04:05:49;99847.22;;;3.63;90.40
80424;BME280;69765;47.668;19.326;2024-01-27T04:08:51;99847.16;;;3.54;91.24
80424;BME280;69765;47.668;19.326;2024-01-27T04:11:53;99851.63;;;3.56;90.64
80424;BME280;69765;47.668;19.326;2024-01-27T04:14:57;99853.47;;;3.66;89.35
80424;BME280;69765;47.668;19.326;2024-01-27T04:18:00;99855.53;;;3.62;88.99
80424;BME280;69765;47.668;19.326;2024-01-27T04:21:03;99852.56;;;3.66;88.69
80424;BME280;69765;47.668;19.326;2024-01-27T04:24:05;99868.44;;;3.72;88.45
80424;BME280;69765;47.668;19.326;2024-01-27T04:27:07;99870.97;;;3.72;87.40
80424;BME280;69765;47.668;19.326;2024-01-27T04:30:11;99888.09;;;3.74;86.76
80424;BME280;69765;47.668;19.326;2024-01-27T04:33:14;99886.59;;;3.76;86.88
80424;BME280;69765;47.668;19.326;2024-01-27T04:36:27;99888.22;;;3.67;87.79
80424;BME280;69765;47.668;19.326;2024-01-27T04:39:31;99888.88;;;3.57;87.53
80424;BME280;69765;47.668;19.326;2024-01-27T04:42:34;99888.16;;;3.58;87.46
80424;BME280;69765;47.668;19.326;2024-01-27T04:45:36;99892.25;;;3.49;88.18
80424;BME280;69765;47.668;19.326;2024-01-27T04:48:39;99886.44;;;3.50;87.05
80424;BME280;69765;47.668;19.326;2024-01-27T04:51:41;99891.50;;;3.50;86.35
80424;BME280;69765;47.668;19.326;2024-01-27T04:54:43;99900.25;;;3.45;86.32
80424;BME280;69765;47.668;19.326;2024-01-27T04:57:45;99913.31;;;3.41;85.08
80424;BME280;69765;47.668;19.326;2024-01-27T05:00:47;99913.81;;;3.46;83.83
80424;BME280;69765;47.668;19.326;2024-01-27T05:03:50;99933.03;;;3.44;84.12
80424;BME280;69765;47.668;19.326;2024-01-27T05:06:52;99941.75;;;3.39;83.52
80424;BME280;69765;47.668;19.326;2024-01-27T05:09:55;99944.47;;;3.40;83.24
80424;BME280;69765;47.668;19.326;2024-01-27T05:12:57;99965.59;;;3.41;81.82
80424;BME280;69765;47.668;19.326;2024-01-27T05:15:59;99976.53;;;3.32;82.77
80424;BME280;69765;47.668;19.326;2024-01-27T05:19:01;99978.78;;;3.29;82.07
80424;BME280;69765;47.668;19.326;2024-01-27T05:22:04;100006.44;;;3.28;82.18
80424;BME280;69765;47.668;19.326;2024-01-27T05:25:06;100017.31;;;3.27;83.03
80424;BME280;69765;47.668;19.326;2024-01-27T05:28:08;100024.44;;;3.15;82.95
80424;BME280;69765;47.668;19.326;2024-01-27T05:31:10;100033.28;;;3.19;83.95
80424;BME280;69765;47.668;19.326;2024-01-27T05:34:12;100040.78;;;3.10;85.23
80424;BME280;69765;47.668;19.326;2024-01-27T05:37:15;100055.06;;;3.10;85.52
80424;BME280;69765;47.668;19.326;2024-01-27T05:40:17;100056.31;;;3.13;85.78
80424;BME280;69765;47.668;19.326;2024-01-27T05:43:19;100061.44;;;3.06;85.95
80424;BME280;69765;47.668;19.326;2024-01-27T05:46:22;100059.47;;;3.03;86.15
80424;BME280;69765;47.668;19.326;2024-01-27T05:49:24;100057.19;;;2.98;86.55
80424;BME280;69765;47.668;19.326;2024-01-27T05:52:26;100051.25;;;2.90;86.84
80424;BME280;69765;47.668;19.326;2024-01-27T05:55:28;100047.28;;;2.92;87.17
80424;BME280;69765;47.668;19.326;2024-01-27T05:58:31;100055.59;;;2.91;86.88
80424;BME280;69765;47.668;19.326;2024-01-27T06:01:33;100038.09;;;2.86;86.40
80424;BME280;69765;47.668;19.326;2024-01-27T06:04:35;100056.72;;;2.86;87.83
80424;BME280;69765;47.668;19.326;2024-01-27T06:07:38;100053.13;;;2.84;87.32
80424;BME280;69765;47.668;19.326;2024-01-27T06:10:41;100077.19;;;2.80;88.18
80424;BME280;69765;47.668;19.326;2024-01-27T06:13:43;100074.50;;;2.79;86.99
80424;BME280;69765;47.668;19.326;2024-01-27T06:16:50;100085.38;;;2.71;86.85
80424;BME280;69765;47.668;19.326;2024-01-27T06:19:54;100086.41;;;2.80;85.96
80424;BME280;69765;47.668;19.326;2024-01-27T06:22:56;100094.53;;;2.77;85.46
80424;BME280;69765;47.668;19.326;2024-01-27T06:25:58;100101.72;;;2.89;84.89
80424;BME280;69765;47.668;19.326;2024-01-27T06:29:01;100104.09;;;2.80;84.23
80424;BME280;69765;47.668;19.326;2024-01-27T06:32:04;100101.41;;;2.78;84.42
80424;BME280;69765;47.668;19.326;2024-01-27T06:35:07;100098.16;;;2.79;85.28
80424;BME280;69765;47.668;19.326;2024-01-27T06:38:09;100107.94;;;2.99;83.37
80424;BME280;69765;47.668;19.326;2024-01-27T06:41:12;100106.03;;;3.13;82.00
80424;BME280;69765;47.668;19.326;2024-01-27T06:44:14;100117.41;;;3.55;79.56
80424;BME280;69765;47.668;19.326;2024-01-27T06:47:16;100107.72;;;3.98;77.04
80424;BME280;69765;47.668;19.326;2024-01-27T06:50:19;100106.56;;;4.59;74.12
80424;BME280;69765;47.668;19.326;2024-01-27T06:53:21;100108.50;;;5.11;70.96
80424;BME280;69765;47.668;19.326;2024-01-27T06:56:23;100111.47;;;5.49;68.57
80424;BME280;69765;47.668;19.326;2024-01-27T06:59:25;100124.72;;;5.71;66.63
80424;BME280;69765;47.668;19.326;2024-01-27T07:02:28;100121.66;;;5.99;65.00
80424;BME280;69765;47.668;19.326;2024-01-27T07:05:33;100123.31;;;6.33;64.06
80424;BME280;69765;47.668;19.326;2024-01-27T07:08:40;100122.09;;;6.73;61.40
80424;BME280;69765;47.668;19.326;2024-01-27T07:11:43;100110.25;;;7.27;58.79
80424;BME280;69765;47.668;19.326;2024-01-27T07:14:45;100104.50;;;7.66;55.67
80424;BME280;69765;47.668;19.326;2024-01-27T07:17:48;100105.56;;;8.33;53.54
80424;BME280;69765;47.668;19.326;2024-01-27T07:20:50;100102.47;;;8.94;51.66
80424;BME280;69765;47.668;19.326;2024-01-27T07:23:53;100105.41;;;9.38;48.51
80424;BME280;69765;47.668;19.326;2024-01-27T07:26:56;100108.41;;;9.93;47.82
80424;BME280;69765;47.668;19.326;2024-01-27T07:30:00;100106.16;;;10.49;44.94
80424;BME280;69765;47.668;19.326;2024-01-27T07:33:02;100102.88;;;11.58;42.63
80424;BME280;69765;47.668;19.326;2024-01-27T07:36:05;100104.88;;;12.30;40.43
80424;BME280;69765;47.668;19.326;2024-01-27T07:39:07;100108.34;;;12.77;39.54
80424;BME280;69765;47.668;19.326;2024-01-27T07:42:10;100107.31;;;13.84;36.43
80424;BME280;69765;47.668;19.326;2024-01-27T07:45:13;100115.94;;;13.84;35.98
80424;BME280;69765;47.668;19.326;2024-01-27T07:48:17;100113.97;;;14.31;35.14
80424;BME280;69765;47.668;19.326;2024-01-27T07:51:19;100122.78;;;14.73;34.00
80424;BME280;69765;47.668;19.326;2024-01-27T07:54:21;100127.16;;;15.29;32.63
80424;BME280;69765;47.668;19.326;2024-01-27T07:57:25;100116.06;;;15.30;32.68
80424;BME280;69765;47.668;19.326;2024-01-27T08:00:27;100125.69;;;15.89;32.15
80424;BME280;69765;47.668;19.326;2024-01-27T08:03:29;100125.03;;;16.21;32.03
80424;BME280;69765;47.668;19.326;2024-01-27T08:06:31;100127.25;;;16.00;32.00
80424;BME280;69765;47.668;19.326;2024-01-27T08:09:34;100134.75;;;16.25;32.03
80424;BME280;69765;47.668;19.326;2024-01-27T08:12:37;100124.91;;;16.93;30.99
80424;BME280;69765;47.668;19.326;2024-01-27T08:15:40;100125.13;;;17.44;29.93
80424;BME280;69765;47.668;19.326;2024-01-27T08:18:42;100129.22;;;18.38;29.20
80424;BME280;69765;47.668;19.326;2024-01-27T08:21:47;100135.94;;;18.00;29.38
80424;BME280;69765;47.668;19.326;2024-01-27T08:24:49;100143.34;;;18.27;29.43
80424;BME280;69765;47.668;19.326;2024-01-27T08:27:51;100146.94;;;18.81;28.21
80424;BME280;69765;47.668;19.326;2024-01-27T08:30:54;100153.22;;;18.68;28.50
80424;BME280;69765;47.668;19.326;2024-01-27T08:33:56;100156.66;;;18.00;29.72
80424;BME280;69765;47.668;19.326;2024-01-27T08:37:00;100165.81;;;18.60;28.80
80424;BME280;69765;47.668;19.326;2024-01-27T08:40:03;100167.13;;;19.22;27.55
80424;BME280;69765;47.668;19.326;2024-01-27T08:43:05;100168.25;;;19.47;27.38
80424;BME280;69765;47.668;19.326;2024-01-27T08:46:08;100167.81;;;19.55;27.50
80424;BME280;69765;47.668;19.326;2024-01-27T08:49:13;100171.84;;;19.86;26.98
80424;BME280;69765;47.668;19.326;2024-01-27T08:52:15;100168.53;;;20.48;26.06
80424;BME280;69765;47.668;19.326;2024-01-27T08:55:18;100172.09;;;20.31;25.55
80424;BME280;69765;47.668;19.326;2024-01-27T08:58:21;100175.72;;;20.54;26.30
80424;BME280;69765;47.668;19.326;2024-01-27T09:01:23;100164.03;;;20.46;25.13
80424;BME280;69765;47.668;19.326;2024-01-27T09:04:25;100165.72;;;19.66;26.62
80424;BME280;69765;47.668;19.326;2024-01-27T09:07:28;100159.31;;;19.97;25.36
80424;BME280;69765;47.668;19.326;2024-01-27T09:10:31;100168.22;;;20.02;26.83
80424;BME280;69765;47.668;19.326;2024-01-27T09:13:33;100180.69;;;20.89;25.50
80424;BME280;69765;47.668;19.326;2024-01-27T09:16:35;100174.44;;;21.50;24.36
80424;BME280;69765;47.668;19.326;2024-01-27T09:19:38;100192.09;;;20.72;25.30
80424;BME280;69765;47.668;19.326;2024-01-27T09:22:40;100188.97;;;20.20;26.47
80424;BME280;69765;47.668;19.326;2024-01-27T09:25:43;100201.66;;;17.84;28.89
80424;BME280;69765;47.668;19.326;2024-01-27T09:28:45;100212.72;;;16.03;30.91
80424;BME280;69765;47.668;19.326;2024-01-27T09:31:56;100190.22;;;19.71;28.14
80424;BME280;69765;47.668;19.326;2024-01-27T09:34:58;100182.78;;;19.24;27.05
80424;BME280;69765;47.668;19.326;2024-01-27T09:38:01;100186.16;;;18.19;29.28
80424;BME280;69765;47.668;19.326;2024-01-27T09:41:03;100186.13;;;16.63;30.47
80424;BME280;69765;47.668;19.326;2024-01-27T09:44:06;100161.69;;;19.18;27.62
80424;BME280;69765;47.668;19.326;2024-01-27T09:47:09;100164.84;;;19.85;26.47
80424;BME280;69765;47.668;19.326;2024-01-27T09:50:14;100151.38;;;19.94;25.55
80424;BME280;69765;47.668;19.326;2024-01-27T09:53:17;100146.59;;;20.43;25.04
80424;BME280;69765;47.668;19.326;2024-01-27T09:56:19;100143.72;;;20.56;24.99
80424;BME280;69765;47.668;19.326;2024-01-27T09:59:23;100146.88;;;20.49;24.40
80424;BME280;69765;47.668;19.326;2024-01-27T10:02:27;100148.53;;;20.47;25.05
80424;BME280;69765;47.668;19.326;2024-01-27T10:05:33;100129.00;;;19.97;26.13
80424;BME280;69765;47.668;19.326;2024-01-27T10:08:37;100110.53;;;19.91;23.97
80424;BME280;69765;47.668;19.326;2024-01-27T10:11:43;100126.13;;;20.72;25.37
80424;BME280;69765;47.668;19.326;2024-01-27T10:14:47;100119.28;;;20.53;24.46
80424;BME280;69765;47.668;19.326;2024-01-27T10:17:50;100129.94;;;19.60;24.71
80424;BME280;69765;47.668;19.326;2024-01-27T10:20:53;100129.00;;;19.97;25.02
80424;BME280;69765;47.668;19.326;2024-01-27T10:23:55;100131.88;;;19.64;25.63
80424;BME280;69765;47.668;19.326;2024-01-27T10:27:01;100147.69;;;19.88;25.38
80424;BME280;69765;47.668;19.326;2024-01-27T10:30:05;100143.31;;;20.28;25.64
80424;BME280;69765;47.668;19.326;2024-01-27T10:33:10;100152.44;;;20.79;24.81
80424;BME280;69765;47.668;19.326;2024-01-27T10:36:13;100139.81;;;20.06;24.44
80424;BME280;69765;47.668;19.326;2024-01-27T10:39:22;100149.13;;;20.61;24.22
80424;BME280;69765;47.668;19.326;2024-01-27T10:42:27;100138.81;;;20.64;25.09
80424;BME280;69765;47.668;19.326;2024-01-27T10:45:38;100138.41;;;21.40;24.11
80424;BME280;69765;47.668;19.326;2024-01-27T10:48:42;100139.44;;;19.99;25.87
80424;BME280;69765;47.668;19.326;2024-01-27T10:51:48;100157.38;;;17.18;29.29
80424;BME280;69765;47.668;19.326;2024-01-27T10:54:53;100146.44;;;15.21;32.55
80424;BME280;69765;47.668;19.326;2024-01-27T10:57:57;100156.00;;;14.30;34.17
80424;BME280;69765;47.668;19.326;2024-01-27T11:01:01;100148.84;;;14.65;33.82
80424;BME280;69765;47.668;19.326;2024-01-27T11:04:04;100137.78;;;16.18;31.88
80424;BME280;69765;47.668;19.326;2024-01-27T11:07:08;100146.34;;;14.53;33.01
80424;BME280;69765;47.668;19.326;2024-01-27T11:10:11;100131.34;;;15.27;32.28
80424;BME280;69765;47.668;19.326;2024-01-27T11:13:13;100137.75;;;16.03;30.73
80424;BME280;69765;47.668;19.326;2024-01-27T11:16:17;100149.19;;;15.37;32.40
80424;BME280;69765;47.668;19.326;2024-01-27T11:19:19;100166.69;;;14.23;33.06
80424;BME280;69765;47.668;19.326;2024-01-27T11:22:27;100186.03;;;12.96;34.56
80424;BME280;69765;47.668;19.326;2024-01-27T11:25:29;100180.31;;;12.65;36.80
80424;BME280;69765;47.668;19.326;2024-01-27T11:28:32;100184.56;;;12.08;36.63
80424;BME280;69765;47.668;19.326;2024-01-27T11:31:34;100203.84;;;11.59;39.76
80424;BME280;69765;47.668;19.326;2024-01-27T11:34:44;100202.81;;;11.57;39.79
80424;BME280;69765;47.668;19.326;2024-01-27T11:37:47;100197.72;;;11.14;40.76
80424;BME280;69765;47.668;19.326;2024-01-27T11:40:50;100197.94;;;10.95;40.49
80424;BME280;69765;47.668;19.326;2024-01-27T11:43:53;100214.38;;;10.67;42.12
80424;BME280;69765;47.668;19.326;2024-01-27T11:46:56;100212.59;;;10.25;42.03
80424;BME280;69765;47.668;19.326;2024-01-27T11:49:58;100217.19;;;9.98;42.73
80424;BME280;69765;47.668;19.326;2024-01-27T11:53:00;100211.97;;;9.68;43.69
80424;BME280;69765;47.668;19.326;2024-01-27T11:56:04;100191.22;;;10.55;43.90
80424;BME280;69765;47.668;19.326;2024-01-27T11:59:06;100179.91;;;12.94;37.70
80424;BME280;69765;47.668;19.326;2024-01-27T12:02:09;100165.50;;;13.93;35.52
80424;BME280;69765;47.668;19.326;2024-01-27T12:05:11;100174.19;;;13.34;35.28
80424;BME280;69765;47.668;19.326;2024-01-27T12:08:14;100168.16;;;12.98;36.10
80424;BME280;69765;47.668;19.326;2024-01-27T12:11:18;100166.00;;;13.76;35.27
80424;BME280;69765;47.668;19.326;2024-01-27T12:14:26;100186.53;;;14.38;32.81
80424;BME280;69765;47.668;19.326;2024-01-27T12:17:28;100180.06;;;14.18;32.80
80424;BME280;69765;47.668;19.326;2024-01-27T12:20:30;100186.81;;;12.84;35.61
80424;BME280;69765;47.668;19.326;2024-01-27T12:23:32;100181.22;;;11.65;38.29
80424;BME280;69765;47.668;19.326;2024-01-27T12:26:35;100186.16;;;11.19;38.87
80424;BME280;69765;47.668;19.326;2024-01-27T12:29:41;100210.53;;;10.72;39.38
80424;BME280;69765;47.668;19.326;2024-01-27T12:32:43;100202.63;;;10.38;40.39
80424;BME280;69765;47.668;19.326;2024-01-27T12:35:46;100196.03;;;9.91;41.01
80424;BME280;69765;47.668;19.326;2024-01-27T12:38:59;100206.75;;;9.77;42.45
80424;BME280;69765;47.668;19.326;2024-01-27T12:42:02;100211.06;;;9.57;44.17
80424;BME280;69765;47.668;19.326;2024-01-27T12:45:05;100197.25;;;9.55;44.01
80424;BME280;69765;47.668;19.326;2024-01-27T12:48:08;100174.75;;;9.61;44.45
80424;BME280;69765;47.668;19.326;2024-01-27T12:51:10;100183.69;;;9.46;43.85
80424;BME280;69765;47.668;19.326;2024-01-27T12:54:12;100192.56;;;9.70;44.46
80424;BME280;69765;47.668;19.326;2024-01-27T12:57:15;100182.75;;;9.85;43.62
80424;BME280;69765;47.668;19.326;2024-01-27T13:00:17;100213.31;;;9.44;44.92
80424;BME280;69765;47.668;19.326;2024-01-27T13:03:20;100202.13;;;8.94;46.27
80424;BME280;69765;47.668;19.326;2024-01-27T13:06:22;100199.34;;;8.82;46.65
80424;BME280;69765;47.668;19.326;2024-01-27T13:09:25;100204.13;;;8.50;47.31
80424;BME280;69765;47.668;19.326;2024-01-27T13:12:27;100202.84;;;8.36;48.51
80424;BME280;69765;47.668;19.326;2024-01-27T13:15:30;100192.66;;;8.28;48.30
80424;BME280;69765;47.668;19.326;2024-01-27T13:18:32;100189.78;;;7.87;49.75
80424;BME280;69765;47.668;19.326;2024-01-27T13:21:35;100200.31;;;7.45;49.77
80424;BME280;69765;47.668;19.326;2024-01-27T13:24:37;100201.13;;;7.63;50.87
80424;BME280;69765;47.668;19.326;2024-01-27T13:27:40;100215.69;;;7.64;50.22
80424;BME280;69765;47.668;19.326;2024-01-27T13:30:42;100208.88;;;7.28;51.55
80424;BME280;69765;47.668;19.326;2024-01-27T13:33:45;100224.91;;;7.36;50.66
80424;BME280;69765;47.668;19.326;2024-01-27T13:36:48;100227.47;;;7.36;50.33
80424;BME280;69765;47.668;19.326;2024-01-27T13:39:50;100222.13;;;7.07;51.76
80424;BME280;69765;47.668;19.326;2024-01-27T13:42:52;100215.97;;;6.96;51.48
80424;BME280;69765;47.668;19.326;2024-01-27T13:45:58;100228.44;;;7.02;51.75
80424;BME280;69765;47.668;19.326;2024-01-27T13:49:00;100239.78;;;7.14;51.95
80424;BME280;69765;47.668;19.326;2024-01-27T13:52:03;100232.03;;;6.78;52.94
80424;BME280;69765;47.668;19.326;2024-01-27T13:55:07;100235.94;;;6.74;53.39
80424;BME280;69765;47.668;19.326;2024-01-27T13:58:10;100225.88;;;6.76;52.78
80424;BME280;69765;47.668;19.326;2024-01-27T14:01:12;100225.28;;;6.70;53.72
80424;BME280;69765;47.668;19.326;2024-01-27T14:04:15;100204.78;;;6.68;53.49
80424;BME280;69765;47.668;19.326;2024-01-27T14:07:17;100203.41;;;6.46;53.83
80424;BME280;69765;47.668;19.326;2024-01-27T14:10:20;100203.56;;;6.56;55.17
80424;BME280;69765;47.668;19.326;2024-01-27T14:13:22;100202.66;;;6.47;55.18
80424;BME280;69765;47.668;19.326;2024-01-27T14:16:24;100219.44;;;6.45;55.14
80424;BME280;69765;47.668;19.326;2024-01-27T14:19:27;100208.94;;;6.33;55.07
80424;BME280;69765;47.668;19.326;2024-01-27T14:22:30;100213.44;;;6.27;55.61
80424;BME280;69765;47.668;19.326;2024-01-27T14:25:32;100221.63;;;6.24;56.25
80424;BME280;69765;47.668;19.326;2024-01-27T14:28:34;100220.44;;;6.29;56.73
80424;BME280;69765;47.668;19.326;2024-01-27T14:31:37;100210.56;;;6.24;56.23
80424;BME280;69765;47.668;19.326;2024-01-27T14:34:39;100216.53;;;6.15;56.84
80424;BME280;69765;47.668;19.326;2024-01-27T14:37:41;100224.75;;;6.04;57.78
80424;BME280;69765;47.668;19.326;2024-01-27T14:40:44;100213.81;;;6.05;57.88
80424;BME280;69765;47.668;19.326;2024-01-27T14:43:46;100213.34;;;6.01;57.42
80424;BME280;69765;47.668;19.326;2024-01-27T14:46:51;100223.66;;;5.94;58.25
80424;BME280;69765;47.668;19.326;2024-01-27T14:49:53;100220.88;;;5.75;59.24
80424;BME280;69765;47.668;19.326;2024-01-27T14:52:56;100222.81;;;5.77;58.87
80424;BME280;69765;47.668;19.326;2024-01-27T14:55:58;100230.16;;;5.83;58.70
80424;BME280;69765;47.668;19.326;2024-01-27T14:59:01;100248.84;;;5.75;59.75
80424;BME280;69765;47.668;19.326;2024-01-27T15:02:03;100254.03;;;5.68;59.01
80424;BME280;69765;47.668;19.326;2024-01-27T15:05:05;100259.06;;;5.59;59.35
80424;BME280;69765;47.668;19.326;2024-01-27T15:08:10;100264.34;;;5.45;61.51
80424;BME280;69765;47.668;19.326;2024-01-27T15:11:12;100260.03;;;5.44;61.03
80424;BME280;69765;47.668;19.326;2024-01-27T15:14:15;100265.44;;;5.47;61.14
80424;BME280;69765;47.668;19.326;2024-01-27T15:17:19;100277.72;;;5.51;61.38
80424;BME280;69765;47.668;19.326;2024-01-27T15:20:25;100283.94;;;5.46;61.48
80424;BME280;69765;47.668;19.326;2024-01-27T15:23:27;100281.56;;;5.47;61.09
80424;BME280;69765;47.668;19.326;2024-01-27T15:26:30;100287.06;;;5.43;62.21
80424;BME280;69765;47.668;19.326;2024-01-27T15:29:34;100292.63;;;5.23;62.50
80424;BME280;69765;47.668;19.326;2024-01-27T15:32:36;100297.78;;;5.32;61.81
80424;BME280;69765;47.668;19.326;2024-01-27T15:35:38;100296.47;;;5.20;62.52
80424;BME280;69765;47.668;19.326;2024-01-27T15:38:42;100289.41;;;5.17;62.89
80424;BME280;69765;47.668;19.326;2024-01-27T15:41:44;100280.34;;;5.19;63.01
80424;BME280;69765;47.668;19.326;2024-01-27T15:44:48;100293.03;;;5.19;63.44
80424;BME280;69765;47.668;19.326;2024-01-27T15:47:50;100294.41;;;5.24;63.65
80424;BME280;69765;47.668;19.326;2024-01-27T15:50:54;100312.38;;;5.10;64.41
80424;BME280;69765;47.668;19.326;2024-01-27T15:53:57;100313.94;;;5.01;64.08